Visão geral

agrupados
250
500
1000
PCD-TRIATHON-NADADEIRAS LIVRES
3000
3000geral


Planilha 1: agrupados

Categoria: 250 2008-2007M
Rank Num Nome Tempo Categoria Equipe Pts
1 499 Thiago Garcia Dell Aquila 00:05:23 250 2008-2007M MARCO 11 - 97506474 1000
2 257 LEO MARCONDES GUIMARAES 00:05:51 250 2008-2007M
860
3 223 PEDRO LUCAS ALBADO 00:07:00 250 2008-2007M EQUIPE APERFEICOAMENTO 730








Categoria: 250 2008-2007F
Rank Num Nome Tempo Categoria Equipe Pts
1 211 JULIA DUARTE 00:05:44 250 2008-2007F EQUIPE APERFEICOAMENTO 1000
2 256 MARIA ISABELA VILLACA E SOUZA 00:08:50 250 2008-2007F ACQUAVIVA NATACAO 860
3 221 GABRIELA CERY MATTOSO ROCHA 00:10:35 250 2008-2007F EQUIPE APERFEICOAMENTO 730
4 494 Julia Cristina Sousa 00:11:33 250 2008-2007F
670








Categoria: 250 2006-2005M
Rank Num Nome Tempo Categoria Equipe Pts
1 1 ENZO KAZUYUKI TAKANASHI 00:04:07 250 2006-2005M THERMAS DO VALE/300 TRIATHLON 1000
2 2 MATHEUS JAKOB SANTOS FEITOSA 00:05:21 250 2006-2005M THERMAS DO VALE/300 TRIATHLON 860
3 237 MATHEUS SERAFIM DA SILVA 00:06:40 250 2006-2005M SEJEL 730
4 495 Luiz Felipe Borges 00:07:25 250 2006-2005M
670
5 248 ELIZEU DOS SANTOS ERMEGENILDO 00:08:05 250 2006-2005M SEJEL 610
6 119 ARTHUR VIEIRA DE SOUZA 00:10:06 250 2006-2005M PREFEITURA MUNICIPAL DE SAO JOSE DOS CAMPOS 583








Categoria: 250 2006-2005F
Rank Num Nome Tempo Categoria Equipe Pts
1 218 BIANCA CASSIANO LAGOZ 00:06:42 250 2006-2005F EQUIPE APERFEICOAMENTO 1000
2 222 MARIANA CERY 00:06:56 250 2006-2005F EQUIPE APERFEICOAMENTO 860
3 258 GABRIELLY CAROLINE DE CASTRO PAULA 00:07:08 250 2006-2005F ACQUAVIVA NATACAO 730
4 497 luisa Miguez 00:08:33 250 2006-2005F
670
5 259 CAMILA SANTOS FERREIRA LEITE CARDOS 00:10:43 250 2006-2005F TAUBATE COUNTRY CLUB 610








Categoria: 500 2004-2003M
Rank Num Nome Tempo Categoria Equipe Pts
1 217 ARTUR BARONE SOBREIRA 00:05:05 500 2004-2003M EQUIPE APERFEICOAMENTO 1000
2 268 ADILSON JOSE DE OLIVEIRA FILHO 00:05:05 500 2004-2003M TAUBATE COUNTRY CLUB 860
3 120 LUIGI MUZARELI DA CRUZ 00:05:46 500 2004-2003M PREFEITURA MUNICIPAL DE SAO JOSE DOS CAMPOS 730
4 3 FELIPE JAKOB SANTOS FEITOSA 00:06:09 500 2004-2003M THERMAS DO VALE/300 TRIATHLON 670
5 209 PAULO EDUARDO DE MOURA 00:06:16 500 2004-2003M EQUIPE APERFEICOAMENTO 610
6 260 LUCAS CASTELANI GOUVEIA 00:06:25 500 2004-2003M
583
7 267 LUIZ DUARTE SILVA 00:06:27 500 2004-2003M
555
8 208 RUAN FERREIRA SANTOS 00:06:28 500 2004-2003M EQUIPE APERFEICOAMENTO 528
9 124 ALLAN PEREIRA LOPES 00:07:00 500 2004-2003M PREFEITURA MUNICIPAL DE SAO JOSE DOS CAMPOS 500
10 266 VICTOR DE CARVALHO LIMA 00:08:42 500 2004-2003M
488








Categoria: 500 2004-2003F
Rank Num Nome Tempo Categoria Equipe Pts
1 123 GIOVANNA SILVERIO BUSTAMANTE 00:05:46 500 2004-2003F PREFEITURA MUNICIPAL DE SAO JOSE DOS CAMPOS 1000
2 4 PAULA YUKO TAKANASHI 00:05:47 500 2004-2003F THERMAS DO VALE/300 TRIATHLON 860
3 121 JESSICA BEATRIZ BORREAU 00:07:15 500 2004-2003F PREFEITURA MUNICIPAL DE SAO JOSE DOS CAMPOS 730
4 233 GABRIELE CRISTINE DE ABREU 00:07:24 500 2004-2003F SEJEL 670
5 225 CLARISSA NATIVA TANURI DE OLIVEIRA 00:08:05 500 2004-2003F EQUIPE APERFEICOAMENTO 610
6 122 JENNIFER FERNANDA MARCONDES DE CASTRO 00:08:07 500 2004-2003F PREFEITURA MUNICIPAL DE SAO JOSE DOS CAMPOS 583
7 239 TATIANA APARECIDA DE OLIVEIRA DE JESUS 00:08:53 500 2004-2003F SEJEL 555
8 264 BEATRIZ NANI RIPER 00:12:24 500 2004-2003F ACADEMIA TCHI-BUM!JACAREI 528








Categoria: 3000 2000-1999M
Rank Num Nome Tempo Categoria Equipe Pts
1 229 PEDRO HENRIQUE CORTEZ 00:39:09 3000 2000-1999M SEJEL 1000
2 133 GABRIEL QUINTERO LORENZI 00:39:18 3000 2000-1999M PREFEITURA MUNICIPAL DE SAO JOSE DOS CAMPOS 860
3 35 JOAO VITOR BULHOES DOS SANTOS 00:40:56 3000 2000-1999M PREFEITURA MUNICIPAL DE UBATUBA 730
4 276 LUCAS SAMPAIO 00:40:57 3000 2000-1999M TAUBATE COUNTRY CLUB 670
5 278 JOAO VICTOR SILVA FERREIRA 00:41:26 3000 2000-1999M TAUBATE COUNTRY CLUB 610
6 33 KAUE RODRIGUES DE FREITAS 00:41:51 3000 2000-1999M PREFEITURA MUNICIPAL DE UBATUBA 583
7 31 SANTIAGO SOARES BUFALO 08/02/2000 00:42:26 3000 2000-1999M PREFEITURA MUNICIPAL DE UBATUBA 555
8 109 MARCELLO VIEIRA M DO VALLE 00:42:36 3000 2000-1999M PREFEITURA MUNICIPAL DE UBATUBA 528
9 37 CARLOS EDUARDO DOS SANTOS 00:42:49 3000 2000-1999M PREFEITURA MUNICIPAL DE UBATUBA 500
10 32 LUCAS GONZAGA XAVIER 00:44:27 3000 2000-1999M PREFEITURA MUNICIPAL DE UBATUBA 488








Categoria: 3000 2000-1999F
Rank Num Nome Tempo Categoria Equipe Pts
1 246 GIOVANA DOMINGOS 00:46:23 3000 2000-1999F SEJEL 1000
2 36 NICOLE TAVARES MORENO 00:49:24 3000 2000-1999F PREFEITURA MUNICIPAL DE UBATUBA 860
3 245 ANA LUISA RAMOS DOMINGOS 00:49:34 3000 2000-1999F SEJEL 730
4 132 YASMIM AVILA RIBEIRO 01:25:44 3000 2000-1999F PREFEITURA MUNICIPAL DE SAO JOSE DOS CAMPOS 670








Categoria: 3000 1998-1997M
Rank Num Nome Tempo Categoria Equipe Pts
1 110 GUSTAVO TRIDENTE BORGES BARROS 00:34:40 3000 1998-1997M PREFEITURA MUNICIPAL DE UBATUBA 1000
2 279 AILTON CAMPOS 00:41:07 3000 1998-1997M TAUBATE COUNTRY CLUB 860
3 39 EWERTON CHARLES R RHEMANN 00:41:11 3000 1998-1997M PREFEITURA MUNICIPAL DE UBATUBA 730
4 115 LINCOLN NUNES DOS SANTOS 00:51:00 3000 1998-1997M PREFEITURA MUNICIPAL DE UBATUBA 670








Categoria: 3000 1998-1997F
Rank Num Nome Tempo Categoria Equipe Pts
1 281 MARCELA DA SILVA OLIVEIRA 00:46:53 3000 1998-1997F TAUBATE COUNTRY CLUB 1000
2 134 FERNANDA BEATRIZ BARRETO 00:58:06 3000 1998-1997F PREFEITURA MUNICIPAL DE SAO JOSE DOS CAMPOS 860
3 135 ANNA CATARINA MITTIMANN DE OLIVEIRA 00:59:24 3000 1998-1997F PREFEITURA MUNICIPAL DE SAO JOSE DOS CAMPOS 730








Categoria: 3000 1996-1991M
Rank Num Nome Tempo Categoria Equipe Pts
1 41 JOAO VITOR DO ROSARIO BARBOSA 00:37:35 3000 1996-1991M PREFEITURA MUNICIPAL DE UBATUBA 1000
2 44 KAUE DE MATTOS 00:40:28 3000 1996-1991M PREFEITURA MUNICIPAL DE UBATUBA 860
3 46 LUCAS FERNANDES BARROS 00:41:26 3000 1996-1991M PREFEITURA MUNICIPAL DE UBATUBA 730
4 284 ROBERTO MARIA FREIRE JR 00:47:32 3000 1996-1991M ACADEMIA TCHI-BUM!JACAREI 670
5 232 JONAS EMANUEL LOPES 00:51:18 3000 1996-1991M SEJEL 610
6 235 LUCAS DE OLIVEIRA SANTOS SIGNORETI 00:51:18 3000 1996-1991M SEJEL 583
7 498 Anderson Torres de OLiveira 00:51:27 3000 1996-1991M
555
8 283 MAURICIO RICARDO DE OLIVEIRA 00:54:02 3001 1996-1991M
528
9 136 RODRIGO CARVALHO FERNANDES 01:08:03 3000 1996-1991M PREFEITURA MUNICIPAL DE SAO JOSE DOS CAMPOS 500








Categoria: 3000 1996-1991F
Rank Num Nome Tempo Categoria Equipe Pts
1 285 ERIKA MARTINS SILVA RAMOS 00:51:27 3000 1996-1991F
1000
2 252 DAPHINE SILVA VILAS BOAS 00:53:19 3000 1996-1991F SEJEL 860








Categoria: 3000 1990-1986M
Rank Num Nome Tempo Categoria Equipe Pts
1 286 DAVID ISSA MATTOS 00:40:56 3000 1990-1986M
1000
2 142 CAUE DE SOUZA RODRIGUES 00:46:28 3000 1990-1986M PREFEITURA MUNICIPAL DE SAO JOSE DOS CAMPOS 860
3 491 luis henrique 00:47:25 3000 1990-1986M
730
4 290 DANILO SARTORI ALARCON 00:49:35 3000 1990-1986M
670
5 47 WALTER MILTON G LEITE 00:51:53 3000 1990-1986M PREFEITURA MUNICIPAL DE UBATUBA 610
6 140 JEFFERSON ADRIANO DE OLIVEIRA 00:52:09 3000 1990-1986M PREFEITURA MUNICIPAL DE SAO JOSE DOS CAMPOS 583
7 291 GUILHERME FERNANDES CARDOSO 00:52:57 3000 1990-1986M CLUBE DE CAMPO DE JOANCPOLIS 555
8 138 WELLINGTON FERREIRA CAETANO 00:56:39 3000 1990-1986M PREFEITURA MUNICIPAL DE SAO JOSE DOS CAMPOS 528
9 294 JOAO GABRIE DOS SANTOS CUOCO 00:58:31 3000 1990-1986M CLUBE DE CAMPO DE JOANCPOLIS 500
10 141 DIEGO GARCIA DE ARACJO 01:03:08 3000 1990-1986M PREFEITURA MUNICIPAL DE SAO JOSE DOS CAMPOS 488








Categoria: 3000 1990-1986F
Rank Num Nome Tempo Categoria Equipe Pts
1 49 PAULA CURY MATTOSO 00:47:00 3000 1990-1986F PREFEITURA MUNICIPAL DE UBATUBA 1000
2 143 BRUNA SANTOS 00:54:54 3000 1990-1986F PREFEITURA MUNICIPAL DE SAO JOSE DOS CAMPOS 860
3 48 JOANA PRADO MADUENO 01:02:40 3000 1990-1986F PREFEITURA MUNICIPAL DE UBATUBA 730
4 137 ANA CAROLINA MIACCI DE OLIVEIRA 01:26:18 3000 1990-1986F PREFEITURA MUNICIPAL DE SAO JOSE DOS CAMPOS 670








Categoria: 3000 1985-1981M
Rank Num Nome Tempo Categoria Equipe Pts
1 296 RAFAEL HIDALGO 00:41:16 3000 1985-1981M AVULSO UBATUBA 1000
2 310 JOSE WALDIR DA COSTA LEMOS JUNIOR 00:41:50 3000 1985-1981M CUNZOLO ACQUA 860
3 146 MARCELO SATORU NAKANO 00:47:44 3000 1985-1981M PREFEITURA MUNICIPAL DE SAO JOSE DOS CAMPOS 730
4 9 HUGO HENRIQUE TINOCO MELO 00:55:52 3000 1985-1981M THERMAS DO VALE/300 TRIATHLON 670








Categoria: 3000 1985-1981F
Rank Num Nome Tempo Categoria Equipe Pts
1 52 LUCIANA CELESTINO DOS SANTOS 00:46:33 3000 1985-1981F PREFEITURA MUNICIPAL DE UBATUBA 1000
2 306 LIVIA RESENDE DIAS 00:49:37 3000 1985-1981F
860
3 152 VANESSA MIEKO NOGUEIRA 00:51:27 3000 1985-1981F PREFEITURA MUNICIPAL DE SAO JOSE DOS CAMPOS 730
4 297 LUANA PERRET 00:54:13 3000 1985-1981F ACADEMIA TCHI-BUM!JACAREI 670








Categoria: 3000 1980-1976M
Rank Num Nome Tempo Categoria Equipe Pts
1 312 RENATO SANTOS FERREIRA LEITE 00:37:26 3000 1980-1976M TAUBATE COUNTRY CLUB 1000
2 315 FLAVIO SANTOS FERREIRA LEITE 00:37:47 3000 1980-1976M TAUBATE COUNTRY CLUB 860
3 67 OTAVIO HIDEKI KANAZAWA 00:39:10 3000 1980-1976M PREFEITURA MUNICIPAL DE UBATUBA 730
4 59 FELIPE BARONE SOBREIRA 00:43:03 3000 1980-1976M PREFEITURA MUNICIPAL DE UBATUBA 670
5 321 BRUNO BARTTICIOTTO 00:50:49 3000 1980-1976M
610
6 156 DIEGO SILVESTRE SOUZA 00:55:25 3000 1980-1976M PREFEITURA MUNICIPAL DE SAO JOSE DOS CAMPOS 583
7 157 MARCELO AUGUSTO CESAR 00:59:35 3000 1980-1976M PREFEITURA MUNICIPAL DE SAO JOSE DOS CAMPOS 555
8 68 ELY CARLOS FLORENCIO 00:00:00 3000 1980-1976M PREFEITURA MUNICIPAL DE UBATUBA 528








Categoria: 3000 1980-1976F
Rank Num Nome Tempo Categoria Equipe Pts
1 161 CARLA BARBOSA ARRUDA 00:42:02 3000 1980-1976F PREFEITURA MUNICIPAL DE SAO JOSE DOS CAMPOS 1000
2 316 CRISTIANE SALES 00:46:53 3000 1980-1976F ACADEMIA TCHI-BUM!JACAREI 860
3 63 BETTINA STEFFEN TOMEI 00:47:11 3000 1980-1976F PREFEITURA MUNICIPAL DE UBATUBA 730
4 70 LUCIANE VILELA DA SILVA 23:49:19 3000 1980-1976F PREFEITURA MUNICIPAL DE UBATUBA 670








Categoria: 3000 1975-1971M
Rank Num Nome Tempo Categoria Equipe Pts
1 75 RODRIGO ALFREDO C CABRAL 00:41:27 3000 1975-1971M PREFEITURA MUNICIPAL DE UBATUBA 1000
2 441 Cristiano Rebert 00:42:49 3000 1975-1971M
860
3 69 ROGERIO MUNIZ DE SOUZA 00:48:18 3000 1975-1971M PREFEITURA MUNICIPAL DE UBATUBA 730
4 340 ALVARO LUIZ FAZENDA 00:53:12 3000 1975-1971M TAUBATE COUNTRY CLUB 670
5 328 WANDER VIEIRA BARRETO 00:56:42 3000 1975-1971M CLUBE RECREATIVO JEQUITIBA 610
6 343 CARLOS ROBERTO SIMOES SENE JUNIOR 00:58:35 3000 1975-1971M
583
7 331 HENRI PAUL CHOURIK 01:00:45 3000 1975-1971M PREFEITURA DE ILHABELA 555








Categoria: 3000 1975-1971F
Rank Num Nome Tempo Categoria Equipe Pts
1 116 MARCIA PORTELLA DE LUNA MARQUES 00:49:56 3000 1975-1971F PREFEITURA MUNICIPAL DE UBATUBA 1000
2 14 CRISTINA MORAES 00:50:04 3000 1975-1971F THERMAS DO VALE/300 TRIATHLON 860
3 228 MADALENA DA CONCEICAO DALTRO DA FONSECA 01:16:59 3000 1975-1971F SEJEL 730








Categoria: 3000 1970-1966M
Rank Num Nome Tempo Categoria Equipe Pts
1 82 MARCELLO JOSE SANTIAGO FRIGI 00:41:45 3000 1970-1966M PREFEITURA MUNICIPAL DE UBATUBA 1000
2 356 RODRIGO CURSINO 00:43:36 3000 1970-1966M TAUBATE COUNTRY CLUB 860
3 350 ANDRE LUIS TOLEDO 00:46:52 3000 1970-1966M TAUBATE COUNTRY CLUB 730
4 361 NELSON ARIMA 00:51:21 3000 1970-1966M TAUBATE COUNTRY CLUB 670
5 355 GUILHERME DORIGO DE CASTILHO 00:51:38 3000 1970-1966M TAUBATE COUNTRY CLUB 610
6 359 SANDRO SANTOS CHRISPIM 00:55:27 3000 1970-1966M CUNZOLO AQUA FITNESS 583
7 17 MARCIO TODAY 01:06:48 3000 1970-1966M THERMAS DO VALE/300 TRIATHLON 555








Categoria: 3000 1970-1966F
Rank Num Nome Tempo Categoria Equipe Pts
1 85 ANA LUCIA GIL DE OLIVEIRA 00:52:53 3000 1970-1966F PREFEITURA MUNICIPAL DE UBATUBA 1000
2 16 LUCIANE SALONE SCHWAGER 01:05:11 3000 1970-1966F THERMAS DO VALE/300 TRIATHLON 860
3 18 GENOVEVA MARIA SOUZA WOODS 01:06:01 3000 1970-1966F THERMAS DO VALE/300 TRIATHLON 730








Categoria: 3000 1965-1961M
Rank Num Nome Tempo Categoria Equipe Pts
1 371 MARCO POLO CUNHA DOS REIS 00:53:00 3000 1965-1961M
1000
2 94 ERNESTO LARANJEIRA RUIZ 01:02:14 3000 1965-1961M PREFEITURA MUNICIPAL DE UBATUBA 860








Categoria: 3000 1965-1961F
Rank Num Nome Tempo Categoria Equipe Pts
1 184 REGINA CELIA MIRANDA DE SOUSA 01:08:38 3000 1965-1961F PREFEITURA MUNICIPAL DE SAO JOSE DOS CAMPOS 1000








Categoria: 3000 1960-1956M
Rank Num Nome Tempo Categoria Equipe Pts
1 379 PAULO SOARES BARBOSA 01:12:39 3000 1960-1956M
1000
2 380 DIMAS ANDREUCCI 01:12:46 3000 1960-1956M
860








Categoria: 3000 1950-1946M
Rank Num Nome Tempo Categoria Equipe Pts
1 103 BENEDITO DA GRACA 01:04:11 3000 1950-1946M PREFEITURA MUNICIPAL DE UBATUBA 1000
2 383 PAULO ROBERTO CORDEIRO DE ALMEIDA 01:22:27 3000 1950-1946M
860








Categoria: 3000 1945 abaixoM
Rank Num Nome Tempo Categoria Equipe Pts
1 107 CARLOS ALBERTO BARRETO 01:12:40 3000 1945 abaixoM PREFEITURA MUNICIPAL DE UBATUBA 1000
2 105 RIVALDO DE OLIVEIRA 01:19:25 3000 1945 abaixoM PREFEITURA MUNICIPAL DE UBATUBA 860








Categoria: 1000 2002-2001M
Rank Num Nome Tempo Categoria Equipe Pts
1 27 LUCAS BABUGIA ARAUJO 00:12:49 1000 2002-2001M PREFEITURA MUNICIPAL DE UBATUBA 1000
2 28 LUCAS DOS SANTOS SIMPLICIO 00:13:39 1000 2002-2001M PREFEITURA MUNICIPAL DE UBATUBA 860
3 30 THOMAZ RICHARD DE LIMA SANTOS 00:13:53 1000 2002-2001M PREFEITURA MUNICIPAL DE UBATUBA 730
4 129 PEDRO HENRIQUE GOULART DE FARIA 00:14:51 1000 2002-2001M PREFEITURA MUNICIPAL DE SAO JOSE DOS CAMPOS 670
5 6 DANIEL KEICHIRO TAKANASHI 00:15:28 1000 2002-2001M THERMAS DO VALE/300 TRIATHLON 610
6 273 LEONARDO RAMOS E SILVA 00:17:35 1000 2002-2001M ACADEMIA ESPACO A2 583
7 270 RODRIGO KENJI ARIMA 00:19:28 1000 2002-2001M TAUBATE COUNTRY CLUB 555
8 269 VITOR CASTRO ZAMBONINI 00:19:38 1000 2002-2001M ASSOCIACAO ATLETICA BOTUCATUENSE 528
9 220 PEDRO VAROTTO DE FIGUEIREDO 00:19:56 1000 2002-2001M EQUIPE APERFEICOAMENTO 500
10 253 JOSE BRAULIO DE SOUZA NETO 00:23:20 1000 2002-2001M SEJEL 488








Categoria: 1000 2002-2001F
Rank Num Nome Tempo Categoria Equipe Pts
1 272 VICENZA FLORES PASSARELLI 00:14:05 1000 2002-2001F TAUBATE COUNTRY CLUB 1000
2 224 GIOVANNA ROSA FERNANDES 00:15:12 1000 2002-2001F EQUIPE APERFEICOAMENTO 860
3 7 JCLIA REGIA CRISTINA M PEREIRA 00:15:12 1000 2002-2001F THERMAS DO VALE/300 TRIATHLON 730
4 127 LINDA MUZARELI DA CRUZ 00:15:26 1000 2002-2001F PREFEITURA MUNICIPAL DE SAO JOSE DOS CAMPOS 670
5 128 RIANE BORGES LUIZ 00:15:42 1000 2002-2001F PREFEITURA MUNICIPAL DE SAO JOSE DOS CAMPOS 610
6 125 MILENA PAMELLA DE OLIVEIRA SILVA 00:18:13 1000 2002-2001F PREFEITURA MUNICIPAL DE SAO JOSE DOS CAMPOS 583
7 29 SABRINA V TENORIO DE ALBUQUERQUE 18/04/2001 00:18:36 1000 2002-2001F PREFEITURA MUNICIPAL DE UBATUBA 555
8 5 BARBARA PONCIANO MARQUES 00:18:49 1000 2002-2001F THERMAS DO VALE/300 TRIATHLON 528
9 207 BRUNA DOS SANTOS GIARETTA 00:20:01 1000 2002-2001F EQUIPE APERFEICOAMENTO 500
10 126 AMANDA APARECIDA DE ALMEIDA ZAGO 00:20:02 1000 2002-2001F PREFEITURA MUNICIPAL DE SAO JOSE DOS CAMPOS 488








Categoria: 1000 2000-1999M
Rank Num Nome Tempo Categoria Equipe Pts
1 275 ANDRE MILIORINI BUENO DE CAMARGO 00:22:47 1000 2000-1999M CLUBE DE CAMPO DE JOANCPOLIS 1000








Categoria: 1000 2000-1999F
Rank Num Nome Tempo Categoria Equipe Pts








Categoria: 1000 1990-1986F
Rank Num Nome Tempo Categoria Equipe Pts
1 295 RENATA GARCIA DE MELO 00:18:48 1000 1990-1986F PREFEITURA DE PINDAMONHANGABA 1000
2 293 ADRIIANE MORENA 00:29:55 1000 1990-1986F
860








Categoria: 1000 1985-1981M
Rank Num Nome Tempo Categoria Equipe Pts
1 56 BRUNO FERNANDES BARROS 00:14:14 1000 1985-1981M PREFEITURA MUNICIPAL DE UBATUBA 1000
2 308 FILIPE COSENZA CESAR ESTEFANO DE OLIVEIRA 00:15:04 1000 1985-1981M
860
3 8 CAMILO RIBEIRO DE SIQUEIRA 00:16:33 1000 1985-1981M THERMAS DO VALE/300 TRIATHLON 730
4 298 LUIZ FAUSTO PRADO VASQUES 00:16:57 1000 1985-1981M
670
5 145 LEANDRO SILVERIO PEREIRA 00:17:02 1000 1985-1981M PREFEITURA MUNICIPAL DE SAO JOSE DOS CAMPOS 610
6 391 Lucas Sant'Ana De Souza 00:17:04 1000 1985-1981M
583
7 300 DANIEL OLIVEIRA BAGDONAS 00:18:56 1000 1985-1981M
555
8 309 CARLOS ALAOR ALCIATI NETO 00:18:57 1000 1985-1981M
528
9 304 ADRIANO MANCILHA 00:19:04 1000 1985-1981M ACADEMIA CUNZOLO TAUBATE 500
10 243 LUIS HENRIQUE GALVAO RIBEIRO 00:19:52 1000 1985-1981M SEJEL 488








Categoria: 1000 1985-1981F
Rank Num Nome Tempo Categoria Equipe Pts
1 307 LCCIA REGINA DE BIAGI CAVA 00:17:03 1000 1985-1981F
1000
2 55 ELAINE SANTO FERNANDES DE OLIVEIRA 00:18:10 1000 1985-1981F PREFEITURA MUNICIPAL DE UBATUBA 860
3 153 LAURA COSTA DE BARROS 00:18:40 1000 1985-1981F PREFEITURA MUNICIPAL DE SAO JOSE DOS CAMPOS 730
4 54 HOSANY EPIFANIO DOS SANTOS 00:20:42 1000 1985-1981F PREFEITURA MUNICIPAL DE UBATUBA 670
5 148 JANAINA MARIA LEITE MACHADO 00:20:51 1000 1985-1981F PREFEITURA MUNICIPAL DE SAO JOSE DOS CAMPOS 610
6 53 FLAVIA FERRARI BARBOSA 00:25:27 1000 1985-1981F PREFEITURA MUNICIPAL DE UBATUBA 583
7 299 HEIDE APARECIDA DE OLIVEIRA 00:26:36 1000 1985-1981F ACADEMIA ENERGY SPORT 555
8 205 PRISCILA MARIA DOS SANTOS 00:28:08 1000 1985-1981F PREFEITURA MUNICIPAL DE SAO JOSE DOS CAMPOS 528
9 303 SILVANA FORELL BEVILAQUA NUNES 23:49:13 1000 1985-1981F CLUBE DE CAMPO DE JOANCPOLIS 500








Categoria: 1000 1980-1976M
Rank Num Nome Tempo Categoria Equipe Pts
1 399 LuCs Alberto Miranda De Carvalho 00:16:44 1000 1980-1976M
1000
2 238 LUIZ HENRIQUE RIBEIRO COURA DA SILVA 00:16:50 1000 1980-1976M SEJEL 860
3 320 DOUGLAS DOS SANTOS LIMA 00:16:54 1000 1980-1976M
730
4 325 HENOCH SANTOS COSTA 00:17:22 1000 1980-1976M
670
5 322 TIAGO JOSE CREMA SILVA 00:18:18 1000 1980-1976M
610
6 493 Mario Augusto Odorize 00:18:31 1000 1980-1976M
583
7 60 FELIPE BASTOS DE SOUZA SIQUEIRA 00:18:35 1000 1980-1976M PREFEITURA MUNICIPAL DE UBATUBA 555
8 72 CAIO ULISSES DE MOURA PINTO 00:18:47 1000 1980-1976M PREFEITURA MUNICIPAL DE UBATUBA 528
9 242 JULIO CESAR GONCALVES 00:20:32 1000 1980-1976M SEJEL 500
10 166 LUCIANO DE SOUZA 00:20:40 1000 1980-1976M PREFEITURA MUNICIPAL DE SAO JOSE DOS CAMPOS 488








Categoria: 1000 1980-1976F
Rank Num Nome Tempo Categoria Equipe Pts
1 165 DANIELLA CASTELLANI DE GOUVEIA 00:16:13 1000 1980-1976F PREFEITURA MUNICIPAL DE SAO JOSE DOS CAMPOS 1000
2 11 LUANA DAMASCENO 00:16:27 1000 1980-1976F THERMAS DO VALE/300 TRIATHLON 860
3 57 JULIETA MENUTTI 00:18:16 1000 1980-1976F PREFEITURA MUNICIPAL DE UBATUBA 730
4 10 JULIANA REIS CARNEVALLE 00:20:21 1000 1980-1976F THERMAS DO VALE/300 TRIATHLON 670
5 58 MICHELE GILABERTE RIBEIRO 00:20:44 1000 1980-1976F PREFEITURA MUNICIPAL DE UBATUBA 610
6 155 FERNANDA COSTA PINTO 00:22:16 1000 1980-1976F PREFEITURA MUNICIPAL DE SAO JOSE DOS CAMPOS 583
7 12 ROSILENE MARCIA RODRIGUES 00:22:36 1000 1980-1976F THERMAS DO VALE/300 TRIATHLON 555
8 323 DANIELE APARECIDA MACEDO 00:29:00 1000 1980-1976F ACQUAVIVA NATACAO 528








Categoria: 1000 1975-1971M
Rank Num Nome Tempo Categoria Equipe Pts
1 73 LUIZ CLAUDIO CAMARA GONCALVES 00:15:04 1000 1975-1971M PREFEITURA MUNICIPAL DE UBATUBA 1000
2 79 FABIO RODRIGUES PLANAS 00:15:44 1000 1975-1971M PREFEITURA MUNICIPAL DE UBATUBA 860
3 335 ALEXANDRE SHU FONG 00:16:22 1000 1975-1971M TAUBATE COUNTRY CLUB 730
4 167 ROGERIO OGNIBENE CELESTINO 00:16:45 1000 1975-1971M PREFEITURA MUNICIPAL DE SAO JOSE DOS CAMPOS 670
5 338 GIOVANNI CHIANELLO 00:16:59 1000 1975-1971M TAUBATE COUNTRY CLUB 610
6 13 MARCIO FERRAZ GOBATO 00:17:42 1000 1975-1971M THERMAS DO VALE/300 TRIATHLON 583
7 342 FERNANDO LACERDA DIAS 00:17:44 1000 1975-1971M
555
8 327 PAULO ROBERTO ANDRADE 00:18:32 1000 1975-1971M TAUBATE COUNTRY CLUB 528
9 333 ERIK KIYOSHI NARAZZAKI 00:19:43 1000 1975-1971M
500
10 344 LUIZ MARIO BOTOSSI 00:19:49 1000 1975-1971M TAUBATE COUNTRY CLUB 488








Categoria: 1000 1975-1971F
Rank Num Nome Tempo Categoria Equipe Pts
1 329 KARINA LOPES CAPI 00:18:10 1000 1975-1971F TAUBATE COUNTRY CLUB 1000
2 332 KARYNA SANTOS FERREIRA LEITE CARDOSO 00:18:32 1000 1975-1971F TAUBATE COUNTRY CLUB 860
3 345 PATRICIA CURSINO 00:22:04 1000 1975-1971F TAUBATE COUNTRY CLUB 730
4 341 DANIELA SASSANO 00:22:31 1000 1975-1971F ACADEMIA TCHI-BUM!JACAREI 670
5 247 CASSIA REGINA GONCALVES MONTEIRO 00:23:07 1000 1975-1971F SEJEL 610
6 326 CARLA REGINA DELVECHIO ALVES PINTO 00:23:10 1000 1975-1971F CLUBE DE CAMPO DE JOANCPOLIS 583
7 171 LUCIANA VIEIRA VERA DE SOUZA 00:23:20 1000 1975-1971F PREFEITURA MUNICIPAL DE SAO JOSE DOS CAMPOS 555
8 347 ADRIANA FURUNO 00:24:32 1000 1975-1971F RAIA LIVRE 528
9 172 ELIANE MONTEIRO DA SILVA CARDOSO 00:26:09 1000 1975-1971F PREFEITURA MUNICIPAL DE SAO JOSE DOS CAMPOS 500








Categoria: 1000 1970-1966M
Rank Num Nome Tempo Categoria Equipe Pts
1 351 LUIZ FERNANDO CHIANELLO 00:14:02 1000 1970-1966M TAUBATE COUNTRY CLUB 1000
2 437 Luiz Vernieri 00:17:24 1000 1970-1966M
860
3 353 FABIO LUIS URU 00:17:44 1000 1970-1966M
730
4 84 EDSON ROBERTO DE CARVALHO 00:19:22 1000 1970-1966M PREFEITURA MUNICIPAL DE UBATUBA 670
5 360 ANDRE DE MATTOS KZAN 00:20:30 1000 1970-1966M
610
6 362 JOSE PAULO MOREIRA JUNIOR 00:20:36 1000 1970-1966M
583
7 83 LUIZ CARLOS VIEIRA 00:20:42 1000 1970-1966M PREFEITURA MUNICIPAL DE UBATUBA 555
8 357 RICARDO DE CASTRO 00:20:53 1000 1970-1966M
528
9 89 AFRANIO VIEIRA BUENO JR 00:22:36 1000 1970-1966M PREFEITURA MUNICIPAL DE UBATUBA 500
10 354 SANDRO MARCELO DE ANDRADE 00:23:48 1000 1970-1966M RAIA LIVRE 488








Categoria: 1000 1970-1966F
Rank Num Nome Tempo Categoria Equipe Pts
1 364 LUCIANA DE GOUVEA BESERRA 00:17:45 1000 1970-1966F
1000
2 440 Georgia Vernieri 00:21:27 1000 1970-1966F
860
3 363 CRISTIANA TOLOSA PONTES 00:25:16 1000 1970-1966F
730
4 176 SIRLENE MARCIANE KUSSUMA 00:26:26 1000 1970-1966F PREFEITURA MUNICIPAL DE SAO JOSE DOS CAMPOS 670
5 177 MARIENE MARIA SILVA SANTOS 00:28:32 1000 1970-1966F PREFEITURA MUNICIPAL DE SAO JOSE DOS CAMPOS 610
6 175 SHIRLEI MARCIANE 00:29:50 1000 1970-1966F PREFEITURA MUNICIPAL DE SAO JOSE DOS CAMPOS 583








Categoria: 1000 1965-1961M
Rank Num Nome Tempo Categoria Equipe Pts
1 20 GEANCARLO RAGONESE 00:16:09 1000 1965-1961M THERMAS DO VALE/300 TRIATHLON 1000
2 93 NELSON RAMOS BARBOSA 00:17:00 1000 1965-1961M PREFEITURA MUNICIPAL DE UBATUBA 860
3 19 HENRIQUE ALEXANDRE CUNHA 00:17:19 1000 1965-1961M THERMAS DO VALE/300 TRIATHLON 730
4 368 BELMIRO ANTUNES 00:19:26 1000 1965-1961M
670
5 370 ROGERIO RONCONI DE SOUZA 00:20:37 1000 1965-1961M
610
6 182 RODOLFO RODRIGUES DOS SANTOS 00:22:23 1000 1965-1961M PREFEITURA MUNICIPAL DE SAO JOSE DOS CAMPOS 583
7 117 ROGERIO CORREA DE OLIVEIRA 00:23:53 1000 1965-1961M PREFEITURA MUNICIPAL DE UBATUBA 555
8 369 FRANCISCO ANANIAS VIEIRA 00:24:16 1000 1965-1961M ACADEMIA RAIA LIVRE - CACAPAVA 528
9 373 LUIZ ALFREDO GERVASIO 00:25:16 1000 1965-1961M ACADEMIA ESPACO A2 500
10 181 JOAO BATISTA BARRETO 00:27:43 1000 1965-1961M PREFEITURA MUNICIPAL DE SAO JOSE DOS CAMPOS 488








Categoria: 1000 1965-1961F
Rank Num Nome Tempo Categoria Equipe Pts
1 500 HELOISA REGINA CARVALHO DE AZEVEDO19/11/1964 00:16:26 1000 1965-1961F PREFEITURA MUNICIPAL DE UBATUBA 1000
2 366 CATIA REGINA F SILVA 00:16:59 1000 1965-1961F
860
3 185 ROSANGELA APARECIDA CORDEIRO DE SOUZA 00:19:25 1000 1965-1961F PREFEITURA MUNICIPAL DE SAO JOSE DOS CAMPOS 730
4 183 ANA MARIA CANDIDO 00:20:57 1000 1965-1961F PREFEITURA MUNICIPAL DE SAO JOSE DOS CAMPOS 670
5 187 MARIA DO CARMO OLIVEIRA DA SILVA 00:22:38 1000 1965-1961F PREFEITURA MUNICIPAL DE SAO JOSE DOS CAMPOS 610
6 91 ELIANE GRACA SANTOS 00:22:56 1000 1965-1961F PREFEITURA MUNICIPAL DE UBATUBA 583
7 204 MARLENE APARECIDA DOS SANTOS 00:26:50 1000 1965-1961F PREFEITURA MUNICIPAL DE SAO JOSE DOS CAMPOS 555
8 179 SELMA LUCIA DE SA JUSTINO 00:28:24 1000 1965-1961F PREFEITURA MUNICIPAL DE SAO JOSE DOS CAMPOS 528








Categoria: 1000 1960-1956M
Rank Num Nome Tempo Categoria Equipe Pts
1 376 HELCIO MARIOTTO JCNIOR 00:16:37 1000 1960-1956M TAUBATE COUNTRY CLUB 1000
2 190 AMADEU PESINI DE OLIVEIRA 00:17:07 1000 1960-1956M PREFEITURA MUNICIPAL DE SAO JOSE DOS CAMPOS 860
3 191 REGIS SOARES KLAUS 00:19:39 1000 1960-1956M PREFEITURA MUNICIPAL DE SAO JOSE DOS CAMPOS 730
4 188 ERNESTO SCARLATE NETO 00:21:09 1000 1960-1956M PREFEITURA MUNICIPAL DE SAO JOSE DOS CAMPOS 670
5 97 EDGAR PORTES DE SOUZA 00:23:38 1000 1960-1956M PREFEITURA MUNICIPAL DE UBATUBA 610
6 195 LUIZ PAULO ALVES DA SILVA 00:23:58 1000 1960-1956M PREFEITURA MUNICIPAL DE SAO JOSE DOS CAMPOS 583
7 98 HENRIQUE PENTEADO MEYER 00:24:05 1000 1960-1956M PREFEITURA MUNICIPAL DE UBATUBA 555
8 193 BRAZ CALDERARO DE ALMEIDA 00:25:20 1000 1960-1956M PREFEITURA MUNICIPAL DE SAO JOSE DOS CAMPOS 528
9 374 JOSE CLAUDIO MONTEIRO 00:29:45 1000 1960-1956M TAUBATE COUNTRY CLUB 500








Categoria: 1000 1960-1956F
Rank Num Nome Tempo Categoria Equipe Pts
1 375 ROSE MARY MARTINS 00:25:17 1000 1960-1956F
1000
2 194 MARIA INES DE OLIVEIRA 00:26:35 1000 1960-1956F PREFEITURA MUNICIPAL DE SAO JOSE DOS CAMPOS 860
3 189 MATILDE M GUEDES ALVES DE OLIVEIRA 00:26:41 1000 1960-1956F PREFEITURA MUNICIPAL DE SAO JOSE DOS CAMPOS 730
4 192 RITA APARECIDA NOVAES 00:28:14 1000 1960-1956F PREFEITURA MUNICIPAL DE SAO JOSE DOS CAMPOS 670
5 99 NIRTHA MARIA NORONHA 00:32:18 1000 1960-1956F PREFEITURA MUNICIPAL DE UBATUBA 610








Categoria: 1000 1955-1951M
Rank Num Nome Tempo Categoria Equipe Pts
1 102 NELSON DOMINGUES BATISTA 00:19:12 1000 1955-1951M PREFEITURA MUNICIPAL DE UBATUBA 1000
2 113 MARCO ANTONIO PINHO 00:19:31 1000 1955-1951M PREFEITURA MUNICIPAL DE UBATUBA 860
3 381 HENRIQUE MOTTA 00:22:04 1000 1955-1951M
730
4 100 WAGNER FELDMANN 00:22:14 1000 1955-1951M PREFEITURA MUNICIPAL DE UBATUBA 670
5 382 CLOVIS JOSE DAVOLI 00:22:53 1000 1955-1951M
610
6 199 FERNANDO PEREIRA FILHO 00:23:25 1000 1955-1951M PREFEITURA MUNICIPAL DE SAO JOSE DOS CAMPOS 583
7 241 JOSE RUBENS MARCONDES RANGEL 00:28:26 1000 1955-1951M SEJEL 555








Categoria: 1000 1955-1951F
Rank Num Nome Tempo Categoria Equipe Pts
1 22 LUCIA VIEIRA PIZA 00:24:22 1000 1955-1951F THERMAS DO VALE/300 TRIATHLON 1000
2 21 DIANA DAMASCENO 00:26:26 1000 1955-1951F THERMAS DO VALE/300 TRIATHLON 860
3 198 DORALICE OLIVEIRA DE SOUZA E SILVA 00:28:49 1000 1955-1951F PREFEITURA MUNICIPAL DE SAO JOSE DOS CAMPOS 730
4 197 TERESINHA BENVINDA DOS SANTOS 00:29:46 1000 1955-1951F PREFEITURA MUNICIPAL DE SAO JOSE DOS CAMPOS 670








Categoria: 1000 1950-1946M
Rank Num Nome Tempo Categoria Equipe Pts
1 240 EDUARDO DE PAIVA REIS 00:20:38 1000 1950-1946M SEJEL 1000
2 104 JINSUKIE NAIKE 00:23:28 1000 1950-1946M PREFEITURA MUNICIPAL DE UBATUBA 860
3 202 PAULO MARCIO CONDE FIGUEIREDO 00:23:40 1000 1950-1946M PREFEITURA MUNICIPAL DE SAO JOSE DOS CAMPOS 730








Categoria: 1000 1950-1946F
Rank Num Nome Tempo Categoria Equipe Pts
1 200 TOMOCO OHIRA BURGARELI 00:24:24 1000 1950-1946F PREFEITURA MUNICIPAL DE SAO JOSE DOS CAMPOS 1000
2 201 ISABEL CAMARGO FERRAZ 00:29:21 1000 1950-1946F PREFEITURA MUNICIPAL DE SAO JOSE DOS CAMPOS 860








Categoria: 1000 1945 abaixoM
Rank Num Nome Tempo Categoria Equipe Pts








Categoria: 1000 1945 abaixoF
Rank Num Nome Tempo Categoria Equipe Pts
1 106 MARIA CELIA ZAMBELLO 00:29:30 1000 1945 abaixoF PREFEITURA MUNICIPAL DE UBATUBA 1000








Categoria: TRIATHLONM
Rank Num Nome Tempo Categoria Equipe Pts
1 51 RAMADAN EL ALI 00:38:01 TRIATHLONM PREFEITURA MUNICIPAL DE UBATUBA 1000
2 313 EDUARDO JUREVICS MARCOLINO 00:39:36 TRIATHLONM TAUBATE COUNTRY CLUB 860
3 496 Ahrmad Mohhamed El Ali 00:42:40 TRIATHLONM
730
4 317 MARCIO ALMEIDA 00:50:10 TRIATHLONM 300TRIATHLON 670
5 151 MARCOS VINICIUS DINIZ 00:54:27 TRIATHLONM PREFEITURA MUNICIPAL DE SAO JOSE DOS CAMPOS 610
6 319 ROBSON RIBEIRO DA SILVA 00:55:06 TRIATHLONM SANTIAGO ASCENCO TRIATHLON 583
7 288 DANIEL AGUIAR 00:56:00 TRIATHLONM TAUBATE COUNTRY CLUB 555
8 349 FERNANDO CEMBRANELI 01:02:23 TRIATHLONM TAUBATE COUNTRY CLUB 528






500
Categoria: PCDM
Rank Num Nome Tempo Categoria Equipe Pts
1 86 JUAN RICARDO F UREJOLA 00:20:28 PCDM PREFEITURA MUNICIPAL DE UBATUBA 1000
2 236 ADEMILSON ROSA DA SILVA 00:23:18 PCDM SEJEL 860

164 RODRIGO JOSE ANDRADE DE CARVALHO 00:28:04 PCDM PREFEITURA MUNICIPAL DE SAO JOSE DOS CAMPOS 730
Categoria: PCDF
Rank Num Nome Tempo Categoria Equipe Pts
1 282 LARISSA DA SILVA OLIVEIRA 00:24:43 PCDF TAUBATE COUNTRY CLUB 1000
2 372 CARMEN SILVIA MONTEIRO ROQUE NAGY 00:25:16 PCDF
860
3 178 ROSANA APARECIDA SELICANNI MAGALHAES 00:26:10 PCDF PREFEITURA MUNICIPAL DE SAO JOSE DOS CAMPOS 730








Categoria: NADADEIRAS LIVREM
Rank Num Nome Tempo Categoria Equipe Pts
1 78 MARCOS DA SILVA 00:37:46 NADADEIRAS LIVREM PREFEITURA MUNICIPAL DE UBATUBA 1000
2 339 FILIPE OLIVIERI DE ALCANTARA 00:49:17 NADADEIRAS LIVREM
860
3 492 Wagner Soares 00:53:40 NADADEIRAS LIVREM
730








Categoria: PCDF500
Rank Num Nome Tempo Categoria Equipe Pts
1 271 Juliana Ferreira Leite cardoso 00:15:20 PCD500 TAUBATE COUNTR CUB 1000

Planilha 2: 250























































































































CIRCUITO UBATUBA DE ÁGUAS ABERTAS



































Categoria: 250 2008-2007M













Rank Num Nome Tempo Categoria Equipe Pts













1 499 Thiago Garcia Dell Aquila 00:05:23 250 2008-2007M MARCO 11 - 97506474 1000













2 257 LEO MARCONDES GUIMARAES 00:05:51 250 2008-2007M
860













3 223 PEDRO LUCAS ALBADO 00:07:00 250 2008-2007M EQUIPE APERFEICOAMENTO 730


































Categoria: 250 2008-2007F













Rank Num Nome Tempo Categoria Equipe Pts













1 211 JULIA DUARTE 00:05:44 250 2008-2007F EQUIPE APERFEICOAMENTO 1000













2 256 MARIA ISABELA VILLACA E SOUZA 00:08:50 250 2008-2007F ACQUAVIVA NATACAO 860













3 221 GABRIELA CERY MATTOSO ROCHA 00:10:35 250 2008-2007F EQUIPE APERFEICOAMENTO 730













4 494 Julia Cristina Sousa 00:11:33 250 2008-2007F
670


































Categoria: 250 2006-2005M













Rank Num Nome Tempo Categoria Equipe Pts













1 1 ENZO KAZUYUKI TAKANASHI 00:04:07 250 2006-2005M THERMAS DO VALE/300 TRIATHLON 1000













2 2 MATHEUS JAKOB SANTOS FEITOSA 00:05:21 250 2006-2005M THERMAS DO VALE/300 TRIATHLON 860













3 237 MATHEUS SERAFIM DA SILVA 00:06:40 250 2006-2005M SEJEL 730













4 495 Luiz Felipe Borges 00:07:25 250 2006-2005M
670













5 248 ELIZEU DOS SANTOS ERMEGENILDO 00:08:05 250 2006-2005M SEJEL 610













6 119 ARTHUR VIEIRA DE SOUZA 00:10:06 250 2006-2005M PREFEITURA MUNICIPAL DE SAO JOSE DOS CAMPOS 583


































Categoria: 250 2006-2005F













Rank Num Nome Tempo Categoria Equipe Pts













1 218 BIANCA CASSIANO LAGOZ 00:06:42 250 2006-2005F EQUIPE APERFEICOAMENTO 1000













2 222 MARIANA CERY 00:06:56 250 2006-2005F EQUIPE APERFEICOAMENTO 860













3 258 GABRIELLY CAROLINE DE CASTRO PAULA 00:07:08 250 2006-2005F ACQUAVIVA NATACAO 730













4 497 luisa Miguez 00:08:33 250 2006-2005F
670













5 259 CAMILA SANTOS FERREIRA LEITE CARDOS 00:10:43 250 2006-2005F TAUBATE COUNTRY CLUB 610














Planilha 3: 500


















































































































CIRCUITO UBATUBA DE ÁGUAS ABERTAS



































Categoria: 500 2004-2003M













Rank Num Nome Tempo Categoria Equipe Pts













1 217 ARTUR BARONE SOBREIRA 00:05:05 500 2004-2003M EQUIPE APERFEICOAMENTO 1000













2 268 ADILSON JOSE DE OLIVEIRA FILHO 00:05:05 500 2004-2003M TAUBATE COUNTRY CLUB 860













3 120 LUIGI MUZARELI DA CRUZ 00:05:46 500 2004-2003M PREFEITURA MUNICIPAL DE SAO JOSE DOS CAMPOS 730













4 3 FELIPE JAKOB SANTOS FEITOSA 00:06:09 500 2004-2003M THERMAS DO VALE/300 TRIATHLON 670













5 209 PAULO EDUARDO DE MOURA 00:06:16 500 2004-2003M EQUIPE APERFEICOAMENTO 610













6 260 LUCAS CASTELANI GOUVEIA 00:06:25 500 2004-2003M
583













7 267 LUIZ DUARTE SILVA 00:06:27 500 2004-2003M
555













8 208 RUAN FERREIRA SANTOS 00:06:28 500 2004-2003M EQUIPE APERFEICOAMENTO 528













9 124 ALLAN PEREIRA LOPES 00:07:00 500 2004-2003M PREFEITURA MUNICIPAL DE SAO JOSE DOS CAMPOS 500













10 266 VICTOR DE CARVALHO LIMA 00:08:42 500 2004-2003M
488


































Categoria: 500 2004-2003F













Rank Num Nome Tempo Categoria Equipe Pts













1 123 GIOVANNA SILVERIO BUSTAMANTE 00:05:46 500 2004-2003F PREFEITURA MUNICIPAL DE SAO JOSE DOS CAMPOS 1000













2 4 PAULA YUKO TAKANASHI 00:05:47 500 2004-2003F THERMAS DO VALE/300 TRIATHLON 860













3 121 JESSICA BEATRIZ BORREAU 00:07:15 500 2004-2003F PREFEITURA MUNICIPAL DE SAO JOSE DOS CAMPOS 730













4 233 GABRIELE CRISTINE DE ABREU 00:07:24 500 2004-2003F SEJEL 670













5 225 CLARISSA NATIVA TANURI DE OLIVEIRA 00:08:05 500 2004-2003F EQUIPE APERFEICOAMENTO 610













6 122 JENNIFER FERNANDA MARCONDES DE CASTRO 00:08:07 500 2004-2003F PREFEITURA MUNICIPAL DE SAO JOSE DOS CAMPOS 583













7 239 TATIANA APARECIDA DE OLIVEIRA DE JESUS 00:08:53 500 2004-2003F SEJEL 555













8 264 BEATRIZ NANI RIPER 00:12:24 500 2004-2003F ACADEMIA TCHI-BUM!JACAREI 528














Planilha 4: 1000







































































































































CIRCUITO UBATUBA DE ÁGUAS ABERTAS









































Categoria: 1000 2002-2001M
















Rank Num Nome Tempo Categoria Equipe Pts
















1 27 LUCAS BABUGIA ARAUJO 00:12:49 1000 2002-2001M PREFEITURA MUNICIPAL DE UBATUBA 1000
















2 28 LUCAS DOS SANTOS SIMPLICIO 00:13:39 1000 2002-2001M PREFEITURA MUNICIPAL DE UBATUBA 860
















3 30 THOMAZ RICHARD DE LIMA SANTOS 00:13:53 1000 2002-2001M PREFEITURA MUNICIPAL DE UBATUBA 730
















4 129 PEDRO HENRIQUE GOULART DE FARIA 00:14:51 1000 2002-2001M PREFEITURA MUNICIPAL DE SAO JOSE DOS CAMPOS 670
















5 6 DANIEL KEICHIRO TAKANASHI 00:15:28 1000 2002-2001M THERMAS DO VALE/300 TRIATHLON 610
















6 273 LEONARDO RAMOS E SILVA 00:17:35 1000 2002-2001M ACADEMIA ESPACO A2 583
















7 270 RODRIGO KENJI ARIMA 00:19:28 1000 2002-2001M TAUBATE COUNTRY CLUB 555
















8 269 VITOR CASTRO ZAMBONINI 00:19:38 1000 2002-2001M ASSOCIACAO ATLETICA BOTUCATUENSE 528
















9 220 PEDRO VAROTTO DE FIGUEIREDO 00:19:56 1000 2002-2001M EQUIPE APERFEICOAMENTO 500
















10 253 JOSE BRAULIO DE SOUZA NETO 00:23:20 1000 2002-2001M SEJEL 488








































Categoria: 1000 2002-2001F
















Rank Num Nome Tempo Categoria Equipe Pts
















1 272 VICENZA FLORES PASSARELLI 00:14:05 1000 2002-2001F TAUBATE COUNTRY CLUB 1000
















2 224 GIOVANNA ROSA FERNANDES 00:15:12 1000 2002-2001F EQUIPE APERFEICOAMENTO 860
















3 7 JCLIA REGIA CRISTINA M PEREIRA 00:15:12 1000 2002-2001F THERMAS DO VALE/300 TRIATHLON 730
















4 127 LINDA MUZARELI DA CRUZ 00:15:26 1000 2002-2001F PREFEITURA MUNICIPAL DE SAO JOSE DOS CAMPOS 670
















5 128 RIANE BORGES LUIZ 00:15:42 1000 2002-2001F PREFEITURA MUNICIPAL DE SAO JOSE DOS CAMPOS 610
















6 125 MILENA PAMELLA DE OLIVEIRA SILVA 00:18:13 1000 2002-2001F PREFEITURA MUNICIPAL DE SAO JOSE DOS CAMPOS 583
















7 29 SABRINA V TENORIO DE ALBUQUERQUE 18/04/2001 00:18:36 1000 2002-2001F PREFEITURA MUNICIPAL DE UBATUBA 555
















8 5 BARBARA PONCIANO MARQUES 00:18:49 1000 2002-2001F THERMAS DO VALE/300 TRIATHLON 528
















9 207 BRUNA DOS SANTOS GIARETTA 00:20:01 1000 2002-2001F EQUIPE APERFEICOAMENTO 500
















10 126 AMANDA APARECIDA DE ALMEIDA ZAGO 00:20:02 1000 2002-2001F PREFEITURA MUNICIPAL DE SAO JOSE DOS CAMPOS 488








































Categoria: 1000 2000-1999M
















Rank Num Nome Tempo Categoria Equipe Pts
















1 275 ANDRE MILIORINI BUENO DE CAMARGO 00:22:47 1000 2000-1999M CLUBE DE CAMPO DE JOANCPOLIS 1000








































Categoria: 1000 2000-1999F
















Rank Num Nome Tempo Categoria Equipe Pts








































Categoria: 1000 1990-1986F
















Rank Num Nome Tempo Categoria Equipe Pts
















1 295 RENATA GARCIA DE MELO 00:18:48 1000 1990-1986F PREFEITURA DE PINDAMONHANGABA 1000
















2 293 ADRIIANE MORENA 00:29:55 1000 1990-1986F
860








































Categoria: 1000 1985-1981M
















Rank Num Nome Tempo Categoria Equipe Pts
















1 56 BRUNO FERNANDES BARROS 00:14:14 1000 1985-1981M PREFEITURA MUNICIPAL DE UBATUBA 1000
















2 308 FILIPE COSENZA CESAR ESTEFANO DE OLIVEIRA 00:15:04 1000 1985-1981M
860
















3 8 CAMILO RIBEIRO DE SIQUEIRA 00:16:33 1000 1985-1981M THERMAS DO VALE/300 TRIATHLON 730
















4 298 LUIZ FAUSTO PRADO VASQUES 00:16:57 1000 1985-1981M
670
















5 145 LEANDRO SILVERIO PEREIRA 00:17:02 1000 1985-1981M PREFEITURA MUNICIPAL DE SAO JOSE DOS CAMPOS 610
















6 391 Lucas Sant'Ana De Souza 00:17:04 1000 1985-1981M
583
















7 300 DANIEL OLIVEIRA BAGDONAS 00:18:56 1000 1985-1981M
555
















8 309 CARLOS ALAOR ALCIATI NETO 00:18:57 1000 1985-1981M
528
















9 304 ADRIANO MANCILHA 00:19:04 1000 1985-1981M ACADEMIA CUNZOLO TAUBATE 500
















10 243 LUIS HENRIQUE GALVAO RIBEIRO 00:19:52 1000 1985-1981M SEJEL 488








































Categoria: 1000 1985-1981F
















Rank Num Nome Tempo Categoria Equipe Pts
















1 307 LCCIA REGINA DE BIAGI CAVA 00:17:03 1000 1985-1981F
1000
















2 55 ELAINE SANTO FERNANDES DE OLIVEIRA 00:18:10 1000 1985-1981F PREFEITURA MUNICIPAL DE UBATUBA 860
















3 153 LAURA COSTA DE BARROS 00:18:40 1000 1985-1981F PREFEITURA MUNICIPAL DE SAO JOSE DOS CAMPOS 730
















4 54 HOSANY EPIFANIO DOS SANTOS 00:20:42 1000 1985-1981F PREFEITURA MUNICIPAL DE UBATUBA 670
















5 148 JANAINA MARIA LEITE MACHADO 00:20:51 1000 1985-1981F PREFEITURA MUNICIPAL DE SAO JOSE DOS CAMPOS 610
















6 53 FLAVIA FERRARI BARBOSA 00:25:27 1000 1985-1981F PREFEITURA MUNICIPAL DE UBATUBA 583
















7 299 HEIDE APARECIDA DE OLIVEIRA 00:26:36 1000 1985-1981F ACADEMIA ENERGY SPORT 555
















8 205 PRISCILA MARIA DOS SANTOS 00:28:08 1000 1985-1981F PREFEITURA MUNICIPAL DE SAO JOSE DOS CAMPOS 528
















9 303 SILVANA FORELL BEVILAQUA NUNES 23:49:13 1000 1985-1981F CLUBE DE CAMPO DE JOANCPOLIS 500








































Categoria: 1000 1980-1976M
















Rank Num Nome Tempo Categoria Equipe Pts
















1 399 LuCs Alberto Miranda De Carvalho 00:16:44 1000 1980-1976M
1000
















2 238 LUIZ HENRIQUE RIBEIRO COURA DA SILVA 00:16:50 1000 1980-1976M SEJEL 860
















3 320 DOUGLAS DOS SANTOS LIMA 00:16:54 1000 1980-1976M
730
















4 325 HENOCH SANTOS COSTA 00:17:22 1000 1980-1976M
670
















5 322 TIAGO JOSE CREMA SILVA 00:18:18 1000 1980-1976M
610
















6 493 Mario Augusto Odorize 00:18:31 1000 1980-1976M
583
















7 60 FELIPE BASTOS DE SOUZA SIQUEIRA 00:18:35 1000 1980-1976M PREFEITURA MUNICIPAL DE UBATUBA 555
















8 72 CAIO ULISSES DE MOURA PINTO 00:18:47 1000 1980-1976M PREFEITURA MUNICIPAL DE UBATUBA 528
















9 242 JULIO CESAR GONCALVES 00:20:32 1000 1980-1976M